sensor_id;sensor_type;location;lat;lon;timestamp;P1;durP1;ratioP1;P2;durP2;ratioP2
45909;SDS011;31622;55.416;37.840;2024-03-17T00:00:19;4.28;;;2.20;;
45909;SDS011;31622;55.416;37.840;2024-03-17T00:02:46;4.85;;;2.25;;
45909;SDS011;31622;55.416;37.840;2024-03-17T00:05:12;4.13;;;2.15;;
45909;SDS011;31622;55.416;37.840;2024-03-17T00:07:38;4.82;;;2.28;;
45909;SDS011;31622;55.416;37.840;2024-03-17T00:10:04;5.28;;;2.20;;
45909;SDS011;31622;55.416;37.840;2024-03-17T00:12:32;2.28;;;1.70;;
45909;SDS011;31622;55.416;37.840;2024-03-17T00:14:58;4.70;;;2.10;;
45909;SDS011;31622;55.416;37.840;2024-03-17T00:17:24;4.07;;;2.03;;
45909;SDS011;31622;55.416;37.840;2024-03-17T00:19:50;5.72;;;2.05;;
45909;SDS011;31622;55.416;37.840;2024-03-17T00:22:16;3.85;;;1.85;;
45909;SDS011;31622;55.416;37.840;2024-03-17T00:24:44;5.13;;;2.15;;
45909;SDS011;31622;55.416;37.840;2024-03-17T00:27:10;5.05;;;2.08;;
45909;SDS011;31622;55.416;37.840;2024-03-17T00:29:39;3.90;;;2.35;;
45909;SDS011;31622;55.416;37.840;2024-03-17T00:32:06;4.13;;;1.95;;
45909;SDS011;31622;55.416;37.840;2024-03-17T00:34:32;5.82;;;2.20;;
45909;SDS011;31622;55.416;37.840;2024-03-17T00:36:57;5.75;;;2.17;;
45909;SDS011;31622;55.416;37.840;2024-03-17T00:39:24;4.82;;;2.30;;
45909;SDS011;31622;55.416;37.840;2024-03-17T00:41:50;4.20;;;2.00;;
45909;SDS011;31622;55.416;37.840;2024-03-17T00:44:16;9.38;;;2.75;;
45909;SDS011;31622;55.416;37.840;2024-03-17T00:46:42;12.38;;;3.70;;
45909;SDS011;31622;55.416;37.840;2024-03-17T00:49:08;15.02;;;4.43;;
45909;SDS011;31622;55.416;37.840;2024-03-17T00:51:35;13.20;;;4.20;;
45909;SDS011;31622;55.416;37.840;2024-03-17T00:54:01;14.77;;;3.72;;
45909;SDS011;31622;55.416;37.840;2024-03-17T00:56:27;7.85;;;2.88;;
45909;SDS011;31622;55.416;37.840;2024-03-17T00:58:53;9.30;;;2.90;;
45909;SDS011;31622;55.416;37.840;2024-03-17T01:01:19;11.52;;;3.08;;
45909;SDS011;31622;55.416;37.840;2024-03-17T01:03:45;7.50;;;3.17;;
45909;SDS011;31622;55.416;37.840;2024-03-17T01:06:11;7.35;;;2.90;;
45909;SDS011;31622;55.416;37.840;2024-03-17T01:08:37;9.45;;;2.80;;
45909;SDS011;31622;55.416;37.840;2024-03-17T01:11:02;9.05;;;3.17;;
45909;SDS011;31622;55.416;37.840;2024-03-17T01:13:28;8.68;;;3.15;;
45909;SDS011;31622;55.416;37.840;2024-03-17T01:15:54;9.32;;;3.08;;
45909;SDS011;31622;55.416;37.840;2024-03-17T01:18:20;5.32;;;2.33;;
45909;SDS011;31622;55.416;37.840;2024-03-17T01:20:45;6.43;;;2.67;;
45909;SDS011;31622;55.416;37.840;2024-03-17T01:23:11;6.22;;;3.17;;
45909;SDS011;31622;55.416;37.840;2024-03-17T01:25:37;6.97;;;2.47;;
45909;SDS011;31622;55.416;37.840;2024-03-17T01:28:03;5.82;;;2.75;;
45909;SDS011;31622;55.416;37.840;2024-03-17T01:30:30;7.30;;;2.80;;
45909;SDS011;31622;55.416;37.840;2024-03-17T01:32:55;9.95;;;2.70;;
45909;SDS011;31622;55.416;37.840;2024-03-17T01:35:21;5.85;;;2.10;;
45909;SDS011;31622;55.416;37.840;2024-03-17T01:37:48;6.95;;;2.70;;
45909;SDS011;31622;55.416;37.840;2024-03-17T01:40:14;5.28;;;2.55;;
45909;SDS011;31622;55.416;37.840;2024-03-17T01:42:40;6.88;;;2.78;;
45909;SDS011;31622;55.416;37.840;2024-03-17T01:47:57;4.97;;;2.53;;
45909;SDS011;31622;55.416;37.840;2024-03-17T01:50:25;6.72;;;2.63;;
45909;SDS011;31622;55.416;37.840;2024-03-17T01:52:52;9.63;;;2.90;;
45909;SDS011;31622;55.416;37.840;2024-03-17T01:55:19;6.60;;;2.38;;
45909;SDS011;31622;55.416;37.840;2024-03-17T01:57:45;6.32;;;2.50;;
45909;SDS011;31622;55.416;37.840;2024-03-17T02:00:11;7.47;;;2.58;;
45909;SDS011;31622;55.416;37.840;2024-03-17T02:02:37;5.78;;;2.50;;
45909;SDS011;31622;55.416;37.840;2024-03-17T02:05:03;7.28;;;2.42;;
45909;SDS011;31622;55.416;37.840;2024-03-17T02:07:29;5.10;;;2.60;;
45909;SDS011;31622;55.416;37.840;2024-03-17T02:09:58;6.78;;;2.60;;
45909;SDS011;31622;55.416;37.840;2024-03-17T02:12:24;4.93;;;2.50;;
45909;SDS011;31622;55.416;37.840;2024-03-17T02:14:50;7.03;;;2.58;;
45909;SDS011;31622;55.416;37.840;2024-03-17T02:17:15;4.45;;;2.28;;
45909;SDS011;31622;55.416;37.840;2024-03-17T02:19:41;6.47;;;2.80;;
45909;SDS011;31622;55.416;37.840;2024-03-17T02:22:13;5.75;;;2.58;;
45909;SDS011;31622;55.416;37.840;2024-03-17T02:24:40;6.90;;;2.97;;
45909;SDS011;31622;55.416;37.840;2024-03-17T02:27:06;7.40;;;2.90;;
45909;SDS011;31622;55.416;37.840;2024-03-17T02:29:32;5.32;;;2.58;;
45909;SDS011;31622;55.416;37.840;2024-03-17T02:31:57;6.28;;;3.10;;
45909;SDS011;31622;55.416;37.840;2024-03-17T02:34:23;7.63;;;2.70;;
45909;SDS011;31622;55.416;37.840;2024-03-17T02:36:49;7.45;;;2.55;;
45909;SDS011;31622;55.416;37.840;2024-03-17T02:39:14;5.75;;;2.90;;
45909;SDS011;31622;55.416;37.840;2024-03-17T02:41:58;6.32;;;2.30;;
45909;SDS011;31622;55.416;37.840;2024-03-17T02:44:24;6.85;;;2.67;;
45909;SDS011;31622;55.416;37.840;2024-03-17T02:46:50;5.80;;;2.50;;
45909;SDS011;31622;55.416;37.840;2024-03-17T02:49:16;5.47;;;2.35;;
45909;SDS011;31622;55.416;37.840;2024-03-17T02:51:43;9.95;;;3.10;;
45909;SDS011;31622;55.416;37.840;2024-03-17T02:54:09;4.43;;;2.50;;
45909;SDS011;31622;55.416;37.840;2024-03-17T02:56:34;6.05;;;2.70;;
45909;SDS011;31622;55.416;37.840;2024-03-17T02:59:00;7.05;;;2.35;;
45909;SDS011;31622;55.416;37.840;2024-03-17T03:01:26;6.93;;;2.55;;
45909;SDS011;31622;55.416;37.840;2024-03-17T03:03:51;6.95;;;2.30;;
45909;SDS011;31622;55.416;37.840;2024-03-17T03:06:17;5.05;;;2.60;;
45909;SDS011;31622;55.416;37.840;2024-03-17T03:08:44;10.73;;;2.63;;
45909;SDS011;31622;55.416;37.840;2024-03-17T03:11:14;6.40;;;2.85;;
45909;SDS011;31622;55.416;37.840;2024-03-17T03:13:41;8.05;;;2.75;;
45909;SDS011;31622;55.416;37.840;2024-03-17T03:16:09;8.50;;;3.10;;
45909;SDS011;31622;55.416;37.840;2024-03-17T03:18:36;8.23;;;2.17;;
45909;SDS011;31622;55.416;37.840;2024-03-17T03:21:02;8.15;;;2.80;;
45909;SDS011;31622;55.416;37.840;2024-03-17T03:23:29;5.53;;;3.08;;
45909;SDS011;31622;55.416;37.840;2024-03-17T03:25:56;5.13;;;2.60;;
45909;SDS011;31622;55.416;37.840;2024-03-17T03:28:22;4.75;;;2.53;;
45909;SDS011;31622;55.416;37.840;2024-03-17T03:30:49;6.18;;;2.55;;
45909;SDS011;31622;55.416;37.840;2024-03-17T03:33:14;6.65;;;2.92;;
45909;SDS011;31622;55.416;37.840;2024-03-17T03:35:40;5.85;;;2.95;;
45909;SDS011;31622;55.416;37.840;2024-03-17T03:38:06;8.63;;;2.97;;
45909;SDS011;31622;55.416;37.840;2024-03-17T03:40:31;8.40;;;2.90;;
45909;SDS011;31622;55.416;37.840;2024-03-17T03:42:58;5.50;;;2.88;;
45909;SDS011;31622;55.416;37.840;2024-03-17T03:45:23;4.50;;;2.55;;
45909;SDS011;31622;55.416;37.840;2024-03-17T03:47:50;10.45;;;3.30;;
45909;SDS011;31622;55.416;37.840;2024-03-17T03:50:19;8.10;;;3.03;;
45909;SDS011;31622;55.416;37.840;2024-03-17T03:52:46;5.80;;;3.00;;
45909;SDS011;31622;55.416;37.840;2024-03-17T03:55:12;8.60;;;2.95;;
45909;SDS011;31622;55.416;37.840;2024-03-17T03:57:41;5.43;;;2.97;;
45909;SDS011;31622;55.416;37.840;2024-03-17T04:00:07;7.80;;;3.25;;
45909;SDS011;31622;55.416;37.840;2024-03-17T04:02:43;6.00;;;2.90;;
45909;SDS011;31622;55.416;37.840;2024-03-17T04:05:09;7.45;;;3.22;;
45909;SDS011;31622;55.416;37.840;2024-03-17T04:07:36;7.75;;;3.58;;
45909;SDS011;31622;55.416;37.840;2024-03-17T04:10:03;8.73;;;4.07;;
45909;SDS011;31622;55.416;37.840;2024-03-17T04:12:29;11.63;;;5.25;;
45909;SDS011;31622;55.416;37.840;2024-03-17T04:14:56;10.57;;;5.82;;
45909;SDS011;31622;55.416;37.840;2024-03-17T04:17:22;11.80;;;5.93;;
45909;SDS011;31622;55.416;37.840;2024-03-17T04:19:49;12.57;;;5.93;;
45909;SDS011;31622;55.416;37.840;2024-03-17T04:22:15;8.55;;;5.90;;
45909;SDS011;31622;55.416;37.840;2024-03-17T04:24:42;9.60;;;5.82;;
45909;SDS011;31622;55.416;37.840;2024-03-17T04:27:08;11.48;;;6.05;;
45909;SDS011;31622;55.416;37.840;2024-03-17T04:29:34;10.70;;;6.28;;
45909;SDS011;31622;55.416;37.840;2024-03-17T04:32:00;11.85;;;6.25;;
45909;SDS011;31622;55.416;37.840;2024-03-17T04:34:27;10.85;;;5.82;;
45909;SDS011;31622;55.416;37.840;2024-03-17T04:36:52;9.48;;;5.78;;
45909;SDS011;31622;55.416;37.840;2024-03-17T04:39:21;9.80;;;6.10;;
45909;SDS011;31622;55.416;37.840;2024-03-17T04:41:50;11.40;;;6.35;;
45909;SDS011;31622;55.416;37.840;2024-03-17T04:44:16;11.05;;;5.32;;
45909;SDS011;31622;55.416;37.840;2024-03-17T04:46:42;9.50;;;5.63;;
45909;SDS011;31622;55.416;37.840;2024-03-17T04:49:08;12.27;;;5.80;;
45909;SDS011;31622;55.416;37.840;2024-03-17T04:51:34;9.65;;;5.25;;
45909;SDS011;31622;55.416;37.840;2024-03-17T04:54:00;13.27;;;5.28;;
45909;SDS011;31622;55.416;37.840;2024-03-17T04:56:28;10.15;;;5.75;;
45909;SDS011;31622;55.416;37.840;2024-03-17T04:58:54;13.75;;;5.57;;
45909;SDS011;31622;55.416;37.840;2024-03-17T05:01:19;9.05;;;5.32;;
45909;SDS011;31622;55.416;37.840;2024-03-17T05:03:45;12.52;;;5.50;;
45909;SDS011;31622;55.416;37.840;2024-03-17T05:06:11;10.27;;;5.00;;
45909;SDS011;31622;55.416;37.840;2024-03-17T05:08:37;10.73;;;5.03;;
45909;SDS011;31622;55.416;37.840;2024-03-17T05:11:04;10.38;;;5.43;;
45909;SDS011;31622;55.416;37.840;2024-03-17T05:13:31;8.55;;;4.53;;
45909;SDS011;31622;55.416;37.840;2024-03-17T05:15:57;9.70;;;4.57;;
45909;SDS011;31622;55.416;37.840;2024-03-17T05:18:23;8.80;;;4.75;;
45909;SDS011;31622;55.416;37.840;2024-03-17T05:21:00;8.73;;;4.07;;
45909;SDS011;31622;55.416;37.840;2024-03-17T05:23:31;10.55;;;4.25;;
45909;SDS011;31622;55.416;37.840;2024-03-17T05:25:57;8.38;;;4.28;;
45909;SDS011;31622;55.416;37.840;2024-03-17T05:28:24;7.18;;;4.50;;
45909;SDS011;31622;55.416;37.840;2024-03-17T05:30:50;7.47;;;4.20;;
45909;SDS011;31622;55.416;37.840;2024-03-17T05:33:17;13.77;;;5.03;;
45909;SDS011;31622;55.416;37.840;2024-03-17T05:35:51;7.85;;;4.18;;
45909;SDS011;31622;55.416;37.840;2024-03-17T05:38:20;10.15;;;4.10;;
45909;SDS011;31622;55.416;37.840;2024-03-17T05:40:53;8.48;;;4.03;;
45909;SDS011;31622;55.416;37.840;2024-03-17T05:43:25;8.45;;;4.50;;
45909;SDS011;31622;55.416;37.840;2024-03-17T05:45:52;9.02;;;4.55;;
45909;SDS011;31622;55.416;37.840;2024-03-17T05:48:19;8.52;;;4.00;;
45909;SDS011;31622;55.416;37.840;2024-03-17T05:50:45;8.88;;;4.00;;
45909;SDS011;31622;55.416;37.840;2024-03-17T05:53:11;12.82;;;4.30;;
45909;SDS011;31622;55.416;37.840;2024-03-17T05:55:37;10.05;;;4.28;;
45909;SDS011;31622;55.416;37.840;2024-03-17T05:58:03;13.43;;;5.32;;
45909;SDS011;31622;55.416;37.840;2024-03-17T06:00:29;13.43;;;4.18;;
45909;SDS011;31622;55.416;37.840;2024-03-17T06:02:56;10.43;;;4.40;;
45909;SDS011;31622;55.416;37.840;2024-03-17T06:05:22;10.85;;;5.05;;
45909;SDS011;31622;55.416;37.840;2024-03-17T06:07:48;12.30;;;3.60;;
45909;SDS011;31622;55.416;37.840;2024-03-17T06:10:14;10.75;;;4.15;;
45909;SDS011;31622;55.416;37.840;2024-03-17T06:12:40;9.18;;;3.55;;
45909;SDS011;31622;55.416;37.840;2024-03-17T06:15:05;11.27;;;3.90;;
45909;SDS011;31622;55.416;37.840;2024-03-17T06:17:32;7.55;;;3.78;;
45909;SDS011;31622;55.416;37.840;2024-03-17T06:19:57;13.45;;;4.50;;
45909;SDS011;31622;55.416;37.840;2024-03-17T06:22:23;10.13;;;3.78;;
45909;SDS011;31622;55.416;37.840;2024-03-17T06:24:49;12.27;;;4.70;;
45909;SDS011;31622;55.416;37.840;2024-03-17T06:27:15;10.80;;;4.10;;
45909;SDS011;31622;55.416;37.840;2024-03-17T06:29:41;10.10;;;4.10;;
45909;SDS011;31622;55.416;37.840;2024-03-17T06:32:08;11.05;;;4.30;;
45909;SDS011;31622;55.416;37.840;2024-03-17T06:34:33;13.32;;;5.10;;
45909;SDS011;31622;55.416;37.840;2024-03-17T06:36:59;8.40;;;4.18;;
45909;SDS011;31622;55.416;37.840;2024-03-17T06:39:25;13.73;;;4.07;;
45909;SDS011;31622;55.416;37.840;2024-03-17T06:41:51;11.27;;;4.50;;
45909;SDS011;31622;55.416;37.840;2024-03-17T06:44:17;14.90;;;5.00;;
45909;SDS011;31622;55.416;37.840;2024-03-17T06:46:44;16.42;;;5.30;;
45909;SDS011;31622;55.416;37.840;2024-03-17T06:49:12;12.52;;;4.40;;
45909;SDS011;31622;55.416;37.840;2024-03-17T06:51:38;12.60;;;4.53;;
45909;SDS011;31622;55.416;37.840;2024-03-17T06:54:03;11.80;;;4.55;;
45909;SDS011;31622;55.416;37.840;2024-03-17T06:56:29;11.25;;;4.55;;
45909;SDS011;31622;55.416;37.840;2024-03-17T06:58:55;10.23;;;4.47;;
45909;SDS011;31622;55.416;37.840;2024-03-17T07:01:20;9.68;;;4.22;;
45909;SDS011;31622;55.416;37.840;2024-03-17T07:03:46;10.45;;;4.97;;
45909;SDS011;31622;55.416;37.840;2024-03-17T07:06:12;10.88;;;4.40;;
45909;SDS011;31622;55.416;37.840;2024-03-17T07:08:37;12.85;;;4.07;;
45909;SDS011;31622;55.416;37.840;2024-03-17T07:11:05;9.98;;;4.55;;
45909;SDS011;31622;55.416;37.840;2024-03-17T07:13:38;10.68;;;4.55;;
45909;SDS011;31622;55.416;37.840;2024-03-17T07:16:04;10.77;;;4.97;;
45909;SDS011;31622;55.416;37.840;2024-03-17T07:18:31;9.75;;;4.35;;
45909;SDS011;31622;55.416;37.840;2024-03-17T07:20:58;11.63;;;5.63;;
45909;SDS011;31622;55.416;37.840;2024-03-17T07:23:24;11.82;;;5.00;;
45909;SDS011;31622;55.416;37.840;2024-03-17T07:25:57;10.93;;;5.18;;
45909;SDS011;31622;55.416;37.840;2024-03-17T07:28:26;11.73;;;6.05;;
45909;SDS011;31622;55.416;37.840;2024-03-17T07:30:56;12.40;;;6.13;;
45909;SDS011;31622;55.416;37.840;2024-03-17T07:33:23;12.75;;;5.88;;
45909;SDS011;31622;55.416;37.840;2024-03-17T07:35:49;13.80;;;6.70;;
45909;SDS011;31622;55.416;37.840;2024-03-17T07:38:20;13.57;;;6.40;;
45909;SDS011;31622;55.416;37.840;2024-03-17T07:40:55;13.38;;;6.32;;
45909;SDS011;31622;55.416;37.840;2024-03-17T07:43:25;16.00;;;6.85;;
45909;SDS011;31622;55.416;37.840;2024-03-17T07:46:07;12.77;;;6.30;;
45909;SDS011;31622;55.416;37.840;2024-03-17T07:48:37;13.15;;;6.60;;
45909;SDS011;31622;55.416;37.840;2024-03-17T07:51:14;10.93;;;5.90;;
45909;SDS011;31622;55.416;37.840;2024-03-17T07:53:42;12.77;;;6.30;;
45909;SDS011;31622;55.416;37.840;2024-03-17T07:56:10;14.48;;;6.43;;
45909;SDS011;31622;55.416;37.840;2024-03-17T07:58:38;12.00;;;7.07;;
45909;SDS011;31622;55.416;37.840;2024-03-17T08:01:05;14.48;;;6.97;;
45909;SDS011;31622;55.416;37.840;2024-03-17T08:03:33;13.95;;;6.35;;
45909;SDS011;31622;55.416;37.840;2024-03-17T08:06:00;10.18;;;6.15;;
45909;SDS011;31622;55.416;37.840;2024-03-17T08:08:27;13.40;;;5.88;;
45909;SDS011;31622;55.416;37.840;2024-03-17T08:10:53;11.27;;;6.63;;
45909;SDS011;31622;55.416;37.840;2024-03-17T08:13:19;10.25;;;5.70;;
45909;SDS011;31622;55.416;37.840;2024-03-17T08:15:46;13.18;;;5.75;;
45909;SDS011;31622;55.416;37.840;2024-03-17T08:18:24;11.00;;;5.43;;
45909;SDS011;31622;55.416;37.840;2024-03-17T08:20:50;10.38;;;6.07;;
45909;SDS011;31622;55.416;37.840;2024-03-17T08:23:16;12.23;;;5.53;;
45909;SDS011;31622;55.416;37.840;2024-03-17T08:25:42;14.68;;;5.32;;
45909;SDS011;31622;55.416;37.840;2024-03-17T08:28:07;11.60;;;5.20;;
45909;SDS011;31622;55.416;37.840;2024-03-17T08:30:33;11.25;;;5.30;;
45909;SDS011;31622;55.416;37.840;2024-03-17T08:32:59;9.68;;;5.30;;
45909;SDS011;31622;55.416;37.840;2024-03-17T08:35:26;10.07;;;5.47;;
45909;SDS011;31622;55.416;37.840;2024-03-17T08:37:52;9.20;;;5.43;;
45909;SDS011;31622;55.416;37.840;2024-03-17T08:40:20;11.43;;;5.00;;
45909;SDS011;31622;55.416;37.840;2024-03-17T08:42:46;11.20;;;5.35;;
45909;SDS011;31622;55.416;37.840;2024-03-17T08:45:12;10.55;;;5.45;;
45909;SDS011;31622;55.416;37.840;2024-03-17T08:47:38;9.00;;;4.70;;
45909;SDS011;31622;55.416;37.840;2024-03-17T08:50:04;10.63;;;5.72;;
45909;SDS011;31622;55.416;37.840;2024-03-17T08:52:33;13.68;;;5.50;;
45909;SDS011;31622;55.416;37.840;2024-03-17T08:54:59;10.88;;;5.35;;
45909;SDS011;31622;55.416;37.840;2024-03-17T08:57:25;12.68;;;5.85;;
45909;SDS011;31622;55.416;37.840;2024-03-17T08:59:51;13.45;;;5.97;;
45909;SDS011;31622;55.416;37.840;2024-03-17T09:02:20;18.48;;;6.40;;
45909;SDS011;31622;55.416;37.840;2024-03-17T09:04:49;22.35;;;9.55;;
45909;SDS011;31622;55.416;37.840;2024-03-17T09:07:14;35.22;;;15.27;;
45909;SDS011;31622;55.416;37.840;2024-03-17T09:09:43;47.60;;;21.73;;
45909;SDS011;31622;55.416;37.840;2024-03-17T09:12:09;51.30;;;24.00;;
45909;SDS011;31622;55.416;37.840;2024-03-17T09:14:35;62.90;;;26.20;;
45909;SDS011;31622;55.416;37.840;2024-03-17T09:17:01;56.17;;;25.73;;
45909;SDS011;31622;55.416;37.840;2024-03-17T09:19:27;58.35;;;26.42;;
45909;SDS011;31622;55.416;37.840;2024-03-17T09:21:54;66.75;;;28.65;;
45909;SDS011;31622;55.416;37.840;2024-03-17T09:24:20;71.43;;;30.05;;
45909;SDS011;31622;55.416;37.840;2024-03-17T09:26:46;76.60;;;31.25;;
45909;SDS011;31622;55.416;37.840;2024-03-17T09:29:12;76.68;;;31.58;;
45909;SDS011;31622;55.416;37.840;2024-03-17T09:31:40;80.78;;;32.78;;
45909;SDS011;31622;55.416;37.840;2024-03-17T09:34:07;82.35;;;33.67;;
45909;SDS011;31622;55.416;37.840;2024-03-17T09:36:33;76.03;;;31.90;;
45909;SDS011;31622;55.416;37.840;2024-03-17T09:38:59;74.20;;;30.88;;
45909;SDS011;31622;55.416;37.840;2024-03-17T09:41:29;76.45;;;29.88;;
45909;SDS011;31622;55.416;37.840;2024-03-17T09:43:56;74.65;;;30.05;;
45909;SDS011;31622;55.416;37.840;2024-03-17T09:46:23;68.65;;;28.60;;
45909;SDS011;31622;55.416;37.840;2024-03-17T09:48:49;68.38;;;28.10;;
45909;SDS011;31622;55.416;37.840;2024-03-17T09:51:25;64.75;;;26.42;;
45909;SDS011;31622;55.416;37.840;2024-03-17T09:53:51;66.53;;;25.85;;
45909;SDS011;31622;55.416;37.840;2024-03-17T09:56:18;62.63;;;23.65;;
45909;SDS011;31622;55.416;37.840;2024-03-17T09:58:45;56.03;;;24.13;;
45909;SDS011;31622;55.416;37.840;2024-03-17T10:01:12;59.75;;;24.75;;
45909;SDS011;31622;55.416;37.840;2024-03-17T10:03:45;52.25;;;22.35;;
45909;SDS011;31622;55.416;37.840;2024-03-17T10:06:15;58.97;;;22.98;;
45909;SDS011;31622;55.416;37.840;2024-03-17T10:11:14;51.38;;;19.35;;
45909;SDS011;31622;55.416;37.840;2024-03-17T10:13:44;52.15;;;18.17;;
45909;SDS011;31622;55.416;37.840;2024-03-17T10:16:23;45.58;;;18.20;;
45909;SDS011;31622;55.416;37.840;2024-03-17T10:18:51;40.08;;;15.65;;
45909;SDS011;31622;55.416;37.840;2024-03-17T10:21:31;41.22;;;16.05;;
45909;SDS011;31622;55.416;37.840;2024-03-17T10:24:07;38.13;;;16.00;;
45909;SDS011;31622;55.416;37.840;2024-03-17T10:26:36;46.38;;;15.45;;
45909;SDS011;31622;55.416;37.840;2024-03-17T10:29:04;35.13;;;14.30;;
45909;SDS011;31622;55.416;37.840;2024-03-17T10:31:38;38.13;;;13.70;;
45909;SDS011;31622;55.416;37.840;2024-03-17T10:34:06;32.25;;;12.95;;
45909;SDS011;31622;55.416;37.840;2024-03-17T10:36:42;30.80;;;12.95;;
45909;SDS011;31622;55.416;37.840;2024-03-17T10:39:23;31.60;;;14.23;;
45909;SDS011;31622;55.416;37.840;2024-03-17T10:42:00;37.58;;;13.48;;
45909;SDS011;31622;55.416;37.840;2024-03-17T10:44:27;32.92;;;13.35;;
45909;SDS011;31622;55.416;37.840;2024-03-17T10:46:57;29.35;;;12.85;;
45909;SDS011;31622;55.416;37.840;2024-03-17T10:49:26;32.53;;;12.57;;
45909;SDS011;31622;55.416;37.840;2024-03-17T10:52:14;30.02;;;12.55;;
45909;SDS011;31622;55.416;37.840;2024-03-17T10:54:43;30.08;;;12.05;;
45909;SDS011;31622;55.416;37.840;2024-03-17T10:59:42;28.92;;;11.38;;
45909;SDS011;31622;55.416;37.840;2024-03-17T11:02:22;27.52;;;10.90;;
45909;SDS011;31622;55.416;37.840;2024-03-17T11:04:53;27.52;;;10.25;;
45909;SDS011;31622;55.416;37.840;2024-03-17T11:07:20;26.87;;;10.60;;
45909;SDS011;31622;55.416;37.840;2024-03-17T11:09:47;24.73;;;9.60;;
45909;SDS011;31622;55.416;37.840;2024-03-17T11:20:15;19.23;;;8.15;;
45909;SDS011;31622;55.416;37.840;2024-03-17T11:22:45;17.33;;;7.68;;
45909;SDS011;31622;55.416;37.840;2024-03-17T11:47:07;14.40;;;5.32;;
45909;SDS011;31622;55.416;37.840;2024-03-17T11:52:03;12.93;;;5.28;;
45909;SDS011;31622;55.416;37.840;2024-03-17T11:54:43;11.05;;;5.10;;
45909;SDS011;31622;55.416;37.840;2024-03-17T11:57:13;11.60;;;4.93;;
45909;SDS011;31622;55.416;37.840;2024-03-17T11:59:39;14.43;;;5.13;;
45909;SDS011;31622;55.416;37.840;2024-03-17T12:04:57;11.23;;;4.38;;
45909;SDS011;31622;55.416;37.840;2024-03-17T12:07:24;11.75;;;4.60;;
45909;SDS011;31622;55.416;37.840;2024-03-17T12:09:51;15.10;;;4.65;;
45909;SDS011;31622;55.416;37.840;2024-03-17T12:12:18;10.65;;;4.82;;
45909;SDS011;31622;55.416;37.840;2024-03-17T12:14:45;12.25;;;5.15;;
45909;SDS011;31622;55.416;37.840;2024-03-17T12:17:13;10.95;;;4.85;;
45909;SDS011;31622;55.416;37.840;2024-03-17T12:19:44;11.20;;;4.82;;
45909;SDS011;31622;55.416;37.840;2024-03-17T12:22:15;10.00;;;4.00;;
45909;SDS011;31622;55.416;37.840;2024-03-17T12:24:47;14.00;;;4.28;;
45909;SDS011;31622;55.416;37.840;2024-03-17T12:27:16;11.65;;;3.97;;
45909;SDS011;31622;55.416;37.840;2024-03-17T12:29:43;9.15;;;4.72;;
45909;SDS011;31622;55.416;37.840;2024-03-17T12:34:36;9.70;;;3.83;;
45909;SDS011;31622;55.416;37.840;2024-03-17T12:37:02;12.35;;;4.47;;
45909;SDS011;31622;55.416;37.840;2024-03-17T12:39:32;9.70;;;4.22;;
45909;SDS011;31622;55.416;37.840;2024-03-17T12:42:09;8.68;;;3.78;;
45909;SDS011;31622;55.416;37.840;2024-03-17T12:44:48;8.57;;;3.83;;
45909;SDS011;31622;55.416;37.840;2024-03-17T12:47:19;10.38;;;3.80;;
45909;SDS011;31622;55.416;37.840;2024-03-17T12:49:51;11.60;;;4.00;;
45909;SDS011;31622;55.416;37.840;2024-03-17T12:54:44;6.25;;;3.20;;
45909;SDS011;31622;55.416;37.840;2024-03-17T12:57:19;8.25;;;3.60;;
45909;SDS011;31622;55.416;37.840;2024-03-17T13:00:16;8.45;;;3.15;;
45909;SDS011;31622;55.416;37.840;2024-03-17T13:02:59;7.80;;;3.28;;
45909;SDS011;31622;55.416;37.840;2024-03-17T13:05:25;9.13;;;3.60;;
45909;SDS011;31622;55.416;37.840;2024-03-17T13:07:52;7.88;;;3.30;;
45909;SDS011;31622;55.416;37.840;2024-03-17T13:10:20;7.05;;;2.88;;
45909;SDS011;31622;55.416;37.840;2024-03-17T13:12:46;6.68;;;3.17;;
45909;SDS011;31622;55.416;37.840;2024-03-17T13:15:16;8.00;;;3.20;;
45909;SDS011;31622;55.416;37.840;2024-03-17T13:17:43;10.68;;;3.25;;
45909;SDS011;31622;55.416;37.840;2024-03-17T13:20:13;9.50;;;3.17;;
45909;SDS011;31622;55.416;37.840;2024-03-17T13:22:43;10.45;;;3.30;;
45909;SDS011;31622;55.416;37.840;2024-03-17T13:25:17;8.60;;;3.30;;
45909;SDS011;31622;55.416;37.840;2024-03-17T13:27:44;8.50;;;2.85;;
45909;SDS011;31622;55.416;37.840;2024-03-17T13:30:13;11.73;;;3.35;;
45909;SDS011;31622;55.416;37.840;2024-03-17T13:32:40;9.20;;;3.95;;
45909;SDS011;31622;55.416;37.840;2024-03-17T13:35:21;14.70;;;4.72;;
45909;SDS011;31622;55.416;37.840;2024-03-17T13:37:49;13.07;;;3.83;;
45909;SDS011;31622;55.416;37.840;2024-03-17T13:40:16;9.73;;;4.07;;
45909;SDS011;31622;55.416;37.840;2024-03-17T13:42:44;13.15;;;4.15;;
45909;SDS011;31622;55.416;37.840;2024-03-17T13:45:11;10.52;;;4.38;;
45909;SDS011;31622;55.416;37.840;2024-03-17T13:47:38;10.00;;;4.80;;
45909;SDS011;31622;55.416;37.840;2024-03-17T13:50:04;11.10;;;4.97;;
45909;SDS011;31622;55.416;37.840;2024-03-17T13:52:36;12.98;;;4.65;;
45909;SDS011;31622;55.416;37.840;2024-03-17T13:55:03;14.52;;;4.88;;
45909;SDS011;31622;55.416;37.840;2024-03-17T13:57:32;9.75;;;4.53;;
45909;SDS011;31622;55.416;37.840;2024-03-17T13:59:59;10.95;;;4.53;;
45909;SDS011;31622;55.416;37.840;2024-03-17T14:02:25;12.63;;;4.28;;
45909;SDS011;31622;55.416;37.840;2024-03-17T14:04:50;13.82;;;5.18;;
45909;SDS011;31622;55.416;37.840;2024-03-17T14:07:16;15.38;;;5.22;;
45909;SDS011;31622;55.416;37.840;2024-03-17T14:09:42;10.70;;;4.53;;
45909;SDS011;31622;55.416;37.840;2024-03-17T14:12:08;11.63;;;4.40;;
45909;SDS011;31622;55.416;37.840;2024-03-17T14:14:34;11.82;;;4.35;;
45909;SDS011;31622;55.416;37.840;2024-03-17T14:16:59;16.75;;;5.05;;
45909;SDS011;31622;55.416;37.840;2024-03-17T14:19:26;13.48;;;4.50;;
45909;SDS011;31622;55.416;37.840;2024-03-17T14:21:52;16.60;;;4.53;;
45909;SDS011;31622;55.416;37.840;2024-03-17T14:24:18;15.40;;;4.93;;
45909;SDS011;31622;55.416;37.840;2024-03-17T14:26:43;13.82;;;4.35;;
45909;SDS011;31622;55.416;37.840;2024-03-17T14:29:09;13.20;;;4.65;;
45909;SDS011;31622;55.416;37.840;2024-03-17T14:31:35;10.18;;;4.45;;
45909;SDS011;31622;55.416;37.840;2024-03-17T14:34:02;11.45;;;3.80;;
45909;SDS011;31622;55.416;37.840;2024-03-17T14:36:31;10.77;;;4.30;;
45909;SDS011;31622;55.416;37.840;2024-03-17T14:39:01;16.48;;;4.68;;
45909;SDS011;31622;55.416;37.840;2024-03-17T14:41:27;12.35;;;4.20;;
45909;SDS011;31622;55.416;37.840;2024-03-17T14:43:56;8.85;;;3.72;;
45909;SDS011;31622;55.416;37.840;2024-03-17T14:46:25;12.50;;;3.47;;
45909;SDS011;31622;55.416;37.840;2024-03-17T14:48:52;12.13;;;3.22;;
45909;SDS011;31622;55.416;37.840;2024-03-17T14:51:18;11.10;;;3.60;;
45909;SDS011;31622;55.416;37.840;2024-03-17T14:53:46;10.38;;;3.70;;
45909;SDS011;31622;55.416;37.840;2024-03-17T14:56:18;8.43;;;3.30;;
45909;SDS011;31622;55.416;37.840;2024-03-17T14:58:44;14.23;;;3.67;;
45909;SDS011;31622;55.416;37.840;2024-03-17T15:01:11;10.38;;;3.28;;
45909;SDS011;31622;55.416;37.840;2024-03-17T15:03:37;10.85;;;3.13;;
45909;SDS011;31622;55.416;37.840;2024-03-17T15:06:13;11.38;;;4.15;;
45909;SDS011;31622;55.416;37.840;2024-03-17T15:08:40;8.88;;;3.30;;
45909;SDS011;31622;55.416;37.840;2024-03-17T15:11:06;8.82;;;3.30;;
45909;SDS011;31622;55.416;37.840;2024-03-17T15:13:34;6.80;;;2.88;;
45909;SDS011;31622;55.416;37.840;2024-03-17T15:16:01;10.48;;;4.22;;